sensor_id;sensor_type;location;lat;lon;timestamp;P1;durP1;ratioP1;P2;durP2;ratioP2
48911;SDS011;34722;52.108;5.044;2023-07-30T00:00:25;15.30;;;3.83;;
48911;SDS011;34722;52.108;5.044;2023-07-30T00:05:24;14.07;;;3.17;;
48911;SDS011;34722;52.108;5.044;2023-07-30T00:11:12;13.52;;;2.80;;
48911;SDS011;34722;52.108;5.044;2023-07-30T00:13:37;11.77;;;3.60;;
48911;SDS011;34722;52.108;5.044;2023-07-30T00:16:03;15.35;;;3.28;;
48911;SDS011;34722;52.108;5.044;2023-07-30T00:18:29;11.13;;;2.60;;
48911;SDS011;34722;52.108;5.044;2023-07-30T00:20:55;12.82;;;3.45;;
48911;SDS011;34722;52.108;5.044;2023-07-30T00:23:24;13.40;;;3.30;;
48911;SDS011;34722;52.108;5.044;2023-07-30T00:25:52;15.77;;;3.13;;
48911;SDS011;34722;52.108;5.044;2023-07-30T00:28:20;11.88;;;3.53;;
48911;SDS011;34722;52.108;5.044;2023-07-30T00:30:46;11.63;;;2.97;;
48911;SDS011;34722;52.108;5.044;2023-07-30T00:33:11;13.43;;;3.10;;
48911;SDS011;34722;52.108;5.044;2023-07-30T00:35:37;14.80;;;3.17;;
48911;SDS011;34722;52.108;5.044;2023-07-30T00:38:03;7.88;;;3.15;;
48911;SDS011;34722;52.108;5.044;2023-07-30T00:40:29;11.15;;;4.28;;
48911;SDS011;34722;52.108;5.044;2023-07-30T00:42:54;8.93;;;2.72;;
48911;SDS011;34722;52.108;5.044;2023-07-30T00:45:20;15.82;;;5.28;;
48911;SDS011;34722;52.108;5.044;2023-07-30T00:47:46;11.77;;;3.28;;
48911;SDS011;34722;52.108;5.044;2023-07-30T00:57:51;17.42;;;3.47;;
48911;SDS011;34722;52.108;5.044;2023-07-30T01:00:17;9.38;;;3.85;;
48911;SDS011;34722;52.108;5.044;2023-07-30T01:02:43;11.52;;;3.40;;
48911;SDS011;34722;52.108;5.044;2023-07-30T01:05:09;14.38;;;3.45;;
48911;SDS011;34722;52.108;5.044;2023-07-30T01:07:35;8.80;;;3.30;;
48911;SDS011;34722;52.108;5.044;2023-07-30T01:10:01;12.13;;;3.30;;
48911;SDS011;34722;52.108;5.044;2023-07-30T01:12:31;11.70;;;3.65;;
48911;SDS011;34722;52.108;5.044;2023-07-30T01:14:59;13.73;;;3.70;;
48911;SDS011;34722;52.108;5.044;2023-07-30T01:17:25;14.07;;;3.58;;
48911;SDS011;34722;52.108;5.044;2023-07-30T01:19:54;13.90;;;3.80;;
48911;SDS011;34722;52.108;5.044;2023-07-30T01:22:21;12.32;;;3.42;;
48911;SDS011;34722;52.108;5.044;2023-07-30T01:24:47;12.68;;;3.65;;
48911;SDS011;34722;52.108;5.044;2023-07-30T01:27:23;13.55;;;4.47;;
48911;SDS011;34722;52.108;5.044;2023-07-30T01:32:26;16.30;;;3.80;;
48911;SDS011;34722;52.108;5.044;2023-07-30T01:34:55;15.10;;;3.65;;
48911;SDS011;34722;52.108;5.044;2023-07-30T01:37:23;14.30;;;3.75;;
48911;SDS011;34722;52.108;5.044;2023-07-30T01:39:50;12.90;;;3.53;;
48911;SDS011;34722;52.108;5.044;2023-07-30T01:42:16;17.13;;;4.38;;
48911;SDS011;34722;52.108;5.044;2023-07-30T01:44:42;18.17;;;3.83;;
48911;SDS011;34722;52.108;5.044;2023-07-30T01:47:08;18.15;;;3.70;;
48911;SDS011;34722;52.108;5.044;2023-07-30T01:49:34;12.40;;;4.63;;
48911;SDS011;34722;52.108;5.044;2023-07-30T01:52:00;20.92;;;3.75;;
48911;SDS011;34722;52.108;5.044;2023-07-30T01:54:26;20.13;;;3.65;;
48911;SDS011;34722;52.108;5.044;2023-07-30T01:56:53;12.88;;;3.65;;
48911;SDS011;34722;52.108;5.044;2023-07-30T01:59:19;22.38;;;4.80;;
48911;SDS011;34722;52.108;5.044;2023-07-30T02:01:45;18.35;;;3.80;;
48911;SDS011;34722;52.108;5.044;2023-07-30T02:04:11;15.43;;;4.25;;
48911;SDS011;34722;52.108;5.044;2023-07-30T02:06:37;17.60;;;4.28;;
48911;SDS011;34722;52.108;5.044;2023-07-30T02:09:03;14.00;;;3.85;;
48911;SDS011;34722;52.108;5.044;2023-07-30T02:11:29;20.50;;;4.47;;
48911;SDS011;34722;52.108;5.044;2023-07-30T02:13:55;23.45;;;4.63;;
48911;SDS011;34722;52.108;5.044;2023-07-30T02:16:21;18.25;;;4.00;;
48911;SDS011;34722;52.108;5.044;2023-07-30T02:18:47;16.50;;;5.65;;
48911;SDS011;34722;52.108;5.044;2023-07-30T02:21:13;18.40;;;4.38;;
48911;SDS011;34722;52.108;5.044;2023-07-30T02:23:39;16.77;;;4.03;;
48911;SDS011;34722;52.108;5.044;2023-07-30T02:26:05;20.58;;;4.93;;
48911;SDS011;34722;52.108;5.044;2023-07-30T02:28:31;15.32;;;4.25;;
48911;SDS011;34722;52.108;5.044;2023-07-30T02:30:58;10.20;;;3.92;;
48911;SDS011;34722;52.108;5.044;2023-07-30T02:33:23;14.95;;;4.00;;
48911;SDS011;34722;52.108;5.044;2023-07-30T02:35:49;17.05;;;5.13;;
48911;SDS011;34722;52.108;5.044;2023-07-30T02:38:15;23.42;;;4.32;;
48911;SDS011;34722;52.108;5.044;2023-07-30T02:40:41;21.67;;;4.70;;
48911;SDS011;34722;52.108;5.044;2023-07-30T02:43:07;19.17;;;4.63;;
48911;SDS011;34722;52.108;5.044;2023-07-30T02:45:33;29.15;;;4.85;;
48911;SDS011;34722;52.108;5.044;2023-07-30T02:47:58;19.05;;;5.55;;
48911;SDS011;34722;52.108;5.044;2023-07-30T02:50:24;15.82;;;4.68;;
48911;SDS011;34722;52.108;5.044;2023-07-30T02:52:50;13.70;;;5.38;;
48911;SDS011;34722;52.108;5.044;2023-07-30T02:55:16;27.13;;;5.47;;
48911;SDS011;34722;52.108;5.044;2023-07-30T02:57:42;22.42;;;4.55;;
48911;SDS011;34722;52.108;5.044;2023-07-30T03:00:09;20.92;;;5.40;;
48911;SDS011;34722;52.108;5.044;2023-07-30T03:02:34;22.40;;;4.85;;
48911;SDS011;34722;52.108;5.044;2023-07-30T03:05:00;19.05;;;6.10;;
48911;SDS011;34722;52.108;5.044;2023-07-30T03:07:26;24.55;;;5.88;;
48911;SDS011;34722;52.108;5.044;2023-07-30T03:09:53;32.25;;;5.70;;
48911;SDS011;34722;52.108;5.044;2023-07-30T03:12:19;22.92;;;5.43;;
48911;SDS011;34722;52.108;5.044;2023-07-30T03:14:45;28.08;;;6.32;;
48911;SDS011;34722;52.108;5.044;2023-07-30T03:17:21;27.55;;;6.13;;
48911;SDS011;34722;52.108;5.044;2023-07-30T03:19:47;22.35;;;7.03;;
48911;SDS011;34722;52.108;5.044;2023-07-30T03:22:14;24.88;;;6.22;;
48911;SDS011;34722;52.108;5.044;2023-07-30T03:24:43;36.22;;;8.05;;
48911;SDS011;34722;52.108;5.044;2023-07-30T03:27:11;29.08;;;6.80;;
48911;SDS011;34722;52.108;5.044;2023-07-30T03:29:36;30.20;;;6.30;;
48911;SDS011;34722;52.108;5.044;2023-07-30T03:32:03;38.05;;;7.88;;
48911;SDS011;34722;52.108;5.044;2023-07-30T03:34:32;27.52;;;7.00;;
48911;SDS011;34722;52.108;5.044;2023-07-30T03:36:58;26.30;;;7.15;;
48911;SDS011;34722;52.108;5.044;2023-07-30T03:39:25;37.00;;;7.45;;
48911;SDS011;34722;52.108;5.044;2023-07-30T03:41:51;27.40;;;7.15;;
48911;SDS011;34722;52.108;5.044;2023-07-30T03:44:17;32.05;;;6.57;;
48911;SDS011;34722;52.108;5.044;2023-07-30T03:46:43;24.98;;;7.22;;
48911;SDS011;34722;52.108;5.044;2023-07-30T03:49:09;34.88;;;8.10;;
48911;SDS011;34722;52.108;5.044;2023-07-30T03:51:35;36.17;;;7.85;;
48911;SDS011;34722;52.108;5.044;2023-07-30T03:54:01;34.78;;;8.32;;
48911;SDS011;34722;52.108;5.044;2023-07-30T03:56:27;42.53;;;9.23;;
48911;SDS011;34722;52.108;5.044;2023-07-30T03:58:53;39.00;;;8.30;;
48911;SDS011;34722;52.108;5.044;2023-07-30T04:01:19;27.05;;;7.68;;
48911;SDS011;34722;52.108;5.044;2023-07-30T04:03:45;30.45;;;9.18;;
48911;SDS011;34722;52.108;5.044;2023-07-30T04:06:11;37.97;;;8.07;;
48911;SDS011;34722;52.108;5.044;2023-07-30T04:11:59;38.10;;;10.45;;
48911;SDS011;34722;52.108;5.044;2023-07-30T04:14:26;31.15;;;8.82;;
48911;SDS011;34722;52.108;5.044;2023-07-30T04:16:52;33.08;;;7.88;;
48911;SDS011;34722;52.108;5.044;2023-07-30T04:19:18;30.15;;;8.45;;
48911;SDS011;34722;52.108;5.044;2023-07-30T04:21:46;36.92;;;8.57;;
48911;SDS011;34722;52.108;5.044;2023-07-30T04:24:12;32.83;;;9.65;;
48911;SDS011;34722;52.108;5.044;2023-07-30T04:26:38;35.80;;;9.20;;
48911;SDS011;34722;52.108;5.044;2023-07-30T04:29:03;40.75;;;9.30;;
48911;SDS011;34722;52.108;5.044;2023-07-30T04:31:29;31.15;;;7.35;;
48911;SDS011;34722;52.108;5.044;2023-07-30T04:33:57;28.02;;;8.05;;
48911;SDS011;34722;52.108;5.044;2023-07-30T04:45:44;29.37;;;9.20;;
48911;SDS011;34722;52.108;5.044;2023-07-30T04:48:09;31.48;;;10.07;;
48911;SDS011;34722;52.108;5.044;2023-07-30T04:50:36;31.83;;;8.73;;
48911;SDS011;34722;52.108;5.044;2023-07-30T04:53:04;30.38;;;10.23;;
48911;SDS011;34722;52.108;5.044;2023-07-30T04:55:30;28.55;;;8.80;;
48911;SDS011;34722;52.108;5.044;2023-07-30T04:57:56;40.92;;;10.00;;
48911;SDS011;34722;52.108;5.044;2023-07-30T05:00:25;45.05;;;9.43;;
48911;SDS011;34722;52.108;5.044;2023-07-30T05:02:51;27.48;;;9.15;;
48911;SDS011;34722;52.108;5.044;2023-07-30T05:05:17;33.35;;;9.88;;
48911;SDS011;34722;52.108;5.044;2023-07-30T05:07:43;42.22;;;10.13;;
48911;SDS011;34722;52.108;5.044;2023-07-30T05:10:09;41.45;;;8.73;;
48911;SDS011;34722;52.108;5.044;2023-07-30T05:12:36;35.50;;;9.75;;
48911;SDS011;34722;52.108;5.044;2023-07-30T05:15:02;32.33;;;10.88;;
48911;SDS011;34722;52.108;5.044;2023-07-30T05:17:29;42.10;;;10.90;;
48911;SDS011;34722;52.108;5.044;2023-07-30T05:19:55;34.45;;;8.88;;
48911;SDS011;34722;52.108;5.044;2023-07-30T05:22:22;34.53;;;9.15;;
48911;SDS011;34722;52.108;5.044;2023-07-30T05:24:50;25.45;;;9.00;;
48911;SDS011;34722;52.108;5.044;2023-07-30T05:27:19;36.90;;;9.05;;
48911;SDS011;34722;52.108;5.044;2023-07-30T05:29:49;37.25;;;9.70;;
48911;SDS011;34722;52.108;5.044;2023-07-30T05:32:15;32.83;;;9.02;;
48911;SDS011;34722;52.108;5.044;2023-07-30T05:34:44;25.65;;;7.88;;
48911;SDS011;34722;52.108;5.044;2023-07-30T05:49:22;23.13;;;7.45;;
48911;SDS011;34722;52.108;5.044;2023-07-30T05:51:49;34.45;;;10.32;;
48911;SDS011;34722;52.108;5.044;2023-07-30T05:54:16;26.15;;;8.52;;
48911;SDS011;34722;52.108;5.044;2023-07-30T05:56:43;26.88;;;8.35;;
48911;SDS011;34722;52.108;5.044;2023-07-30T05:59:09;41.33;;;8.82;;
48911;SDS011;34722;52.108;5.044;2023-07-30T06:01:38;24.77;;;7.72;;
48911;SDS011;34722;52.108;5.044;2023-07-30T06:04:04;29.38;;;10.00;;
48911;SDS011;34722;52.108;5.044;2023-07-30T06:06:30;30.58;;;8.35;;
48911;SDS011;34722;52.108;5.044;2023-07-30T06:08:56;29.30;;;8.20;;
48911;SDS011;34722;52.108;5.044;2023-07-30T06:11:22;29.33;;;11.68;;
48911;SDS011;34722;52.108;5.044;2023-07-30T06:13:48;27.92;;;8.38;;
48911;SDS011;34722;52.108;5.044;2023-07-30T06:16:16;29.35;;;8.98;;
48911;SDS011;34722;52.108;5.044;2023-07-30T06:18:45;23.30;;;8.85;;
48911;SDS011;34722;52.108;5.044;2023-07-30T06:21:11;35.03;;;9.77;;
48911;SDS011;34722;52.108;5.044;2023-07-30T06:23:37;29.77;;;9.30;;
48911;SDS011;34722;52.108;5.044;2023-07-30T06:26:03;45.15;;;10.88;;
48911;SDS011;34722;52.108;5.044;2023-07-30T06:28:29;28.23;;;8.60;;
48911;SDS011;34722;52.108;5.044;2023-07-30T06:30:55;23.30;;;8.73;;
48911;SDS011;34722;52.108;5.044;2023-07-30T06:33:24;20.67;;;6.47;;
48911;SDS011;34722;52.108;5.044;2023-07-30T06:35:50;24.80;;;8.20;;
48911;SDS011;34722;52.108;5.044;2023-07-30T06:38:16;28.50;;;7.25;;
48911;SDS011;34722;52.108;5.044;2023-07-30T06:40:41;30.40;;;8.13;;
48911;SDS011;34722;52.108;5.044;2023-07-30T06:43:07;36.22;;;8.18;;
48911;SDS011;34722;52.108;5.044;2023-07-30T06:45:35;23.30;;;6.18;;
48911;SDS011;34722;52.108;5.044;2023-07-30T06:48:01;19.90;;;6.38;;
48911;SDS011;34722;52.108;5.044;2023-07-30T06:50:29;23.80;;;5.90;;
48911;SDS011;34722;52.108;5.044;2023-07-30T06:52:59;23.08;;;5.88;;
48911;SDS011;34722;52.108;5.044;2023-07-30T06:55:26;25.40;;;5.93;;
48911;SDS011;34722;52.108;5.044;2023-07-30T06:57:56;15.85;;;5.28;;
48911;SDS011;34722;52.108;5.044;2023-07-30T07:00:27;24.95;;;5.68;;
48911;SDS011;34722;52.108;5.044;2023-07-30T07:02:54;31.38;;;6.90;;
48911;SDS011;34722;52.108;5.044;2023-07-30T07:05:21;20.38;;;5.15;;
48911;SDS011;34722;52.108;5.044;2023-07-30T07:07:49;30.17;;;7.03;;
48911;SDS011;34722;52.108;5.044;2023-07-30T07:10:20;21.42;;;5.10;;
48911;SDS011;34722;52.108;5.044;2023-07-30T07:12:46;23.80;;;4.32;;
48911;SDS011;34722;52.108;5.044;2023-07-30T07:15:12;19.98;;;4.05;;
48911;SDS011;34722;52.108;5.044;2023-07-30T07:17:39;16.65;;;4.45;;
48911;SDS011;34722;52.108;5.044;2023-07-30T07:20:33;14.15;;;4.47;;
48911;SDS011;34722;52.108;5.044;2023-07-30T07:23:01;17.67;;;4.25;;
48911;SDS011;34722;52.108;5.044;2023-07-30T07:25:27;21.88;;;5.32;;
48911;SDS011;34722;52.108;5.044;2023-07-30T07:27:54;17.92;;;3.75;;
48911;SDS011;34722;52.108;5.044;2023-07-30T07:30:29;17.23;;;4.20;;
48911;SDS011;34722;52.108;5.044;2023-07-30T07:33:17;22.40;;;4.25;;
48911;SDS011;34722;52.108;5.044;2023-07-30T07:36:06;18.02;;;4.40;;
48911;SDS011;34722;52.108;5.044;2023-07-30T07:39:02;19.75;;;4.30;;
48911;SDS011;34722;52.108;5.044;2023-07-30T07:41:43;19.48;;;4.13;;
48911;SDS011;34722;52.108;5.044;2023-07-30T07:44:26;20.30;;;5.33;;
48911;SDS011;34722;52.108;5.044;2023-07-30T07:46:53;15.82;;;4.95;;
48911;SDS011;34722;52.108;5.044;2023-07-30T07:49:20;21.48;;;4.50;;
48911;SDS011;34722;52.108;5.044;2023-07-30T07:51:48;25.77;;;6.07;;
48911;SDS011;34722;52.108;5.044;2023-07-30T07:54:16;19.73;;;5.88;;
48911;SDS011;34722;52.108;5.044;2023-07-30T07:56:50;25.23;;;5.10;;
48911;SDS011;34722;52.108;5.044;2023-07-30T07:59:20;18.17;;;4.65;;
48911;SDS011;34722;52.108;5.044;2023-07-30T08:08:39;17.48;;;4.90;;
48911;SDS011;34722;52.108;5.044;2023-07-30T08:11:52;16.80;;;4.47;;
48911;SDS011;34722;52.108;5.044;2023-07-30T08:14:50;14.40;;;4.38;;
48911;SDS011;34722;52.108;5.044;2023-07-30T08:17:19;15.35;;;5.65;;
48911;SDS011;34722;52.108;5.044;2023-07-30T08:19:50;12.95;;;3.63;;
48911;SDS011;34722;52.108;5.044;2023-07-30T08:22:22;11.63;;;3.78;;
48911;SDS011;34722;52.108;5.044;2023-07-30T08:24:48;15.82;;;5.85;;
48911;SDS011;34722;52.108;5.044;2023-07-30T08:27:17;17.52;;;5.88;;
48911;SDS011;34722;52.108;5.044;2023-07-30T08:36:06;15.40;;;3.45;;
48911;SDS011;34722;52.108;5.044;2023-07-30T08:38:33;12.15;;;3.78;;
48911;SDS011;34722;52.108;5.044;2023-07-30T08:40:59;15.25;;;3.90;;
48911;SDS011;34722;52.108;5.044;2023-07-30T08:43:26;18.52;;;4.97;;
48911;SDS011;34722;52.108;5.044;2023-07-30T08:45:52;18.00;;;4.15;;
48911;SDS011;34722;52.108;5.044;2023-07-30T08:48:18;11.63;;;3.45;;
48911;SDS011;34722;52.108;5.044;2023-07-30T08:50:43;11.07;;;3.78;;
48911;SDS011;34722;52.108;5.044;2023-07-30T08:53:10;13.63;;;3.47;;
48911;SDS011;34722;52.108;5.044;2023-07-30T08:55:37;19.17;;;5.47;;
48911;SDS011;34722;52.108;5.044;2023-07-30T09:38:41;5.43;;;2.35;;
48911;SDS011;34722;52.108;5.044;2023-07-30T09:41:19;7.70;;;2.40;;
48911;SDS011;34722;52.108;5.044;2023-07-30T09:43:46;6.57;;;2.30;;
48911;SDS011;34722;52.108;5.044;2023-07-30T09:46:28;7.68;;;2.60;;
48911;SDS011;34722;52.108;5.044;2023-07-30T09:49:01;7.50;;;2.67;;
48911;SDS011;34722;52.108;5.044;2023-07-30T09:51:36;6.28;;;2.28;;
48911;SDS011;34722;52.108;5.044;2023-07-30T09:54:14;9.60;;;2.80;;
48911;SDS011;34722;52.108;5.044;2023-07-30T09:57:04;7.63;;;2.58;;
48911;SDS011;34722;52.108;5.044;2023-07-30T09:59:46;8.80;;;2.45;;
48911;SDS011;34722;52.108;5.044;2023-07-30T10:02:15;11.75;;;2.95;;
48911;SDS011;34722;52.108;5.044;2023-07-30T10:51:39;6.75;;;1.90;;
48911;SDS011;34722;52.108;5.044;2023-07-30T10:54:09;5.90;;;1.73;;
48911;SDS011;34722;52.108;5.044;2023-07-30T10:56:44;5.22;;;1.52;;
48911;SDS011;34722;52.108;5.044;2023-07-30T10:59:13;4.75;;;2.08;;
48911;SDS011;34722;52.108;5.044;2023-07-30T11:01:48;11.10;;;1.92;;
48911;SDS011;34722;52.108;5.044;2023-07-30T11:18:12;5.82;;;2.88;;
48911;SDS011;34722;52.108;5.044;2023-07-30T11:20:49;6.88;;;1.70;;
48911;SDS011;34722;52.108;5.044;2023-07-30T11:26:43;6.53;;;1.83;;
48911;SDS011;34722;52.108;5.044;2023-07-30T11:29:18;6.72;;;1.92;;
48911;SDS011;34722;52.108;5.044;2023-07-30T11:31:49;6.80;;;2.05;;
48911;SDS011;34722;52.108;5.044;2023-07-30T11:34:17;6.65;;;2.55;;
48911;SDS011;34722;52.108;5.044;2023-07-30T11:36:45;7.53;;;2.17;;
48911;SDS011;34722;52.108;5.044;2023-07-30T11:39:16;8.18;;;1.63;;
48911;SDS011;34722;52.108;5.044;2023-07-30T11:41:48;8.35;;;2.17;;
48911;SDS011;34722;52.108;5.044;2023-07-30T11:46:59;7.35;;;1.80;;
48911;SDS011;34722;52.108;5.044;2023-07-30T11:49:38;5.70;;;1.77;;
48911;SDS011;34722;52.108;5.044;2023-07-30T11:52:10;6.55;;;1.63;;
48911;SDS011;34722;52.108;5.044;2023-07-30T11:54:46;2.53;;;1.55;;
48911;SDS011;34722;52.108;5.044;2023-07-30T11:57:32;6.18;;;1.70;;
48911;SDS011;34722;52.108;5.044;2023-07-30T12:00:40;5.90;;;1.55;;
48911;SDS011;34722;52.108;5.044;2023-07-30T12:05:52;5.00;;;1.60;;
48911;SDS011;34722;52.108;5.044;2023-07-30T12:08:53;6.18;;;1.70;;
48911;SDS011;34722;52.108;5.044;2023-07-30T12:11:21;4.28;;;1.85;;
48911;SDS011;34722;52.108;5.044;2023-07-30T12:14:01;6.28;;;2.10;;
48911;SDS011;34722;52.108;5.044;2023-07-30T12:19:41;7.17;;;1.50;;
48911;SDS011;34722;52.108;5.044;2023-07-30T12:42:30;4.20;;;1.48;;
48911;SDS011;34722;52.108;5.044;2023-07-30T13:10:21;6.03;;;1.52;;
48911;SDS011;34722;52.108;5.044;2023-07-30T13:12:48;3.85;;;1.40;;
48911;SDS011;34722;52.108;5.044;2023-07-30T13:15:17;2.47;;;1.17;;
48911;SDS011;34722;52.108;5.044;2023-07-30T13:17:43;4.10;;;1.20;;
48911;SDS011;34722;52.108;5.044;2023-07-30T13:36:00;7.97;;;2.67;;
48911;SDS011;34722;52.108;5.044;2023-07-30T13:38:30;6.30;;;1.48;;
48911;SDS011;34722;52.108;5.044;2023-07-30T13:41:06;4.63;;;1.20;;
48911;SDS011;34722;52.108;5.044;2023-07-30T13:43:39;7.55;;;1.35;;
48911;SDS011;34722;52.108;5.044;2023-07-30T13:46:05;7.25;;;1.95;;
48911;SDS011;34722;52.108;5.044;2023-07-30T14:06:55;3.72;;;1.70;;
48911;SDS011;34722;52.108;5.044;2023-07-30T14:09:21;6.10;;;1.58;;
48911;SDS011;34722;52.108;5.044;2023-07-30T14:20:59;9.02;;;2.58;;
48911;SDS011;34722;52.108;5.044;2023-07-30T14:23:33;12.15;;;2.30;;
48911;SDS011;34722;52.108;5.044;2023-07-30T14:26:20;17.35;;;2.10;;
48911;SDS011;34722;52.108;5.044;2023-07-30T14:29:10;6.97;;;1.98;;
48911;SDS011;34722;52.108;5.044;2023-07-30T14:31:42;9.15;;;3.75;;
48911;SDS011;34722;52.108;5.044;2023-07-30T14:34:32;7.80;;;1.88;;
48911;SDS011;34722;52.108;5.044;2023-07-30T14:37:01;15.13;;;2.60;;
48911;SDS011;34722;52.108;5.044;2023-07-30T14:39:30;7.88;;;2.20;;
48911;SDS011;34722;52.108;5.044;2023-07-30T14:49:04;8.73;;;3.00;;
48911;SDS011;34722;52.108;5.044;2023-07-30T14:58:32;15.05;;;3.60;;
48911;SDS011;34722;52.108;5.044;2023-07-30T15:01:12;6.40;;;1.90;;
48911;SDS011;34722;52.108;5.044;2023-07-30T15:07:48;16.75;;;2.65;;
48911;SDS011;34722;52.108;5.044;2023-07-30T15:48:28;13.10;;;3.10;;
48911;SDS011;34722;52.108;5.044;2023-07-30T15:50:54;14.38;;;3.03;;
48911;SDS011;34722;52.108;5.044;2023-07-30T15:53:20;15.52;;;3.60;;
48911;SDS011;34722;52.108;5.044;2023-07-30T15:55:45;13.95;;;3.60;;
48911;SDS011;34722;52.108;5.044;2023-07-30T15:58:12;20.17;;;4.72;;
48911;SDS011;34722;52.108;5.044;2023-07-30T16:00:38;13.45;;;3.08;;
48911;SDS011;34722;52.108;5.044;2023-07-30T16:03:04;16.08;;;4.15;;
48911;SDS011;34722;52.108;5.044;2023-07-30T16:05:31;18.92;;;4.30;;
48911;SDS011;34722;52.108;5.044;2023-07-30T16:07:57;17.50;;;3.65;;
48911;SDS011;34722;52.108;5.044;2023-07-30T16:10:35;15.30;;;4.13;;
48911;SDS011;34722;52.108;5.044;2023-07-30T16:13:16;11.27;;;3.53;;
48911;SDS011;34722;52.108;5.044;2023-07-30T16:15:45;15.18;;;3.13;;
48911;SDS011;34722;52.108;5.044;2023-07-30T16:18:19;16.02;;;3.67;;
48911;SDS011;34722;52.108;5.044;2023-07-30T16:20:45;12.85;;;3.53;;
48911;SDS011;34722;52.108;5.044;2023-07-30T16:23:10;14.65;;;3.63;;
48911;SDS011;34722;52.108;5.044;2023-07-30T16:25:39;14.68;;;3.75;;
48911;SDS011;34722;52.108;5.044;2023-07-30T16:28:08;12.63;;;3.42;;
48911;SDS011;34722;52.108;5.044;2023-07-30T16:30:45;14.88;;;3.60;;
48911;SDS011;34722;52.108;5.044;2023-07-30T16:33:11;20.38;;;3.90;;
48911;SDS011;34722;52.108;5.044;2023-07-30T16:35:37;12.52;;;3.85;;
48911;SDS011;34722;52.108;5.044;2023-07-30T16:38:03;14.70;;;3.83;;
48911;SDS011;34722;52.108;5.044;2023-07-30T16:40:31;19.58;;;3.95;;
48911;SDS011;34722;52.108;5.044;2023-07-30T16:42:57;11.85;;;3.63;;
48911;SDS011;34722;52.108;5.044;2023-07-30T16:45:22;12.63;;;3.22;;
48911;SDS011;34722;52.108;5.044;2023-07-30T16:47:48;9.60;;;2.78;;
48911;SDS011;34722;52.108;5.044;2023-07-30T16:50:17;7.55;;;2.20;;
48911;SDS011;34722;52.108;5.044;2023-07-30T16:52:43;8.32;;;2.85;;
48911;SDS011;34722;52.108;5.044;2023-07-30T16:55:08;5.20;;;1.73;;
48911;SDS011;34722;52.108;5.044;2023-07-30T16:57:34;6.15;;;1.95;;
48911;SDS011;34722;52.108;5.044;2023-07-30T17:00:02;5.63;;;1.60;;
48911;SDS011;34722;52.108;5.044;2023-07-30T17:02:30;6.55;;;1.70;;
48911;SDS011;34722;52.108;5.044;2023-07-30T17:04:57;8.55;;;1.80;;
48911;SDS011;34722;52.108;5.044;2023-07-30T17:07:23;7.43;;;2.10;;
48911;SDS011;34722;52.108;5.044;2023-07-30T17:09:48;6.97;;;2.20;;
48911;SDS011;34722;52.108;5.044;2023-07-30T17:12:14;7.57;;;2.28;;
48911;SDS011;34722;52.108;5.044;2023-07-30T17:14:40;10.05;;;2.70;;
48911;SDS011;34722;52.108;5.044;2023-07-30T17:17:06;5.78;;;2.30;;
48911;SDS011;34722;52.108;5.044;2023-07-30T17:19:32;4.10;;;2.10;;
48911;SDS011;34722;52.108;5.044;2023-07-30T17:21:58;5.32;;;2.00;;
48911;SDS011;34722;52.108;5.044;2023-07-30T17:24:24;4.90;;;2.20;;
48911;SDS011;34722;52.108;5.044;2023-07-30T17:26:50;6.63;;;2.53;;
48911;SDS011;34722;52.108;5.044;2023-07-30T17:29:16;7.78;;;2.60;;
48911;SDS011;34722;52.108;5.044;2023-07-30T17:31:42;8.73;;;2.88;;
48911;SDS011;34722;52.108;5.044;2023-07-30T17:34:07;8.32;;;2.38;;
48911;SDS011;34722;52.108;5.044;2023-07-30T17:36:33;6.20;;;2.85;;
48911;SDS011;34722;52.108;5.044;2023-07-30T17:39:01;5.95;;;2.30;;
48911;SDS011;34722;52.108;5.044;2023-07-30T17:41:27;5.15;;;2.58;;
48911;SDS011;34722;52.108;5.044;2023-07-30T17:43:53;7.90;;;2.88;;
48911;SDS011;34722;52.108;5.044;2023-07-30T17:46:18;6.40;;;2.83;;
48911;SDS011;34722;52.108;5.044;2023-07-30T17:48:46;4.63;;;2.45;;
48911;SDS011;34722;52.108;5.044;2023-07-30T17:51:16;10.02;;;2.75;;
48911;SDS011;34722;52.108;5.044;2023-07-30T17:53:43;4.25;;;2.40;;
48911;SDS011;34722;52.108;5.044;2023-07-30T17:56:09;10.50;;;4.43;;
48911;SDS011;34722;52.108;5.044;2023-07-30T17:58:35;7.10;;;2.70;;
48911;SDS011;34722;52.108;5.044;2023-07-30T18:01:01;7.28;;;2.67;;
48911;SDS011;34722;52.108;5.044;2023-07-30T18:03:33;5.78;;;2.50;;
48911;SDS011;34722;52.108;5.044;2023-07-30T18:06:00;4.82;;;2.95;;
48911;SDS011;34722;52.108;5.044;2023-07-30T18:08:27;4.75;;;2.47;;
48911;SDS011;34722;52.108;5.044;2023-07-30T18:10:53;7.53;;;2.80;;
48911;SDS011;34722;52.108;5.044;2023-07-30T18:13:19;6.35;;;2.97;;
48911;SDS011;34722;52.108;5.044;2023-07-30T18:15:45;7.07;;;3.25;;
48911;SDS011;34722;52.108;5.044;2023-07-30T18:18:11;5.10;;;2.22;;
48911;SDS011;34722;52.108;5.044;2023-07-30T18:20:37;5.78;;;2.72;;
48911;SDS011;34722;52.108;5.044;2023-07-30T18:23:03;8.18;;;2.97;;
48911;SDS011;34722;52.108;5.044;2023-07-30T18:25:29;10.95;;;2.88;;
48911;SDS011;34722;52.108;5.044;2023-07-30T18:27:56;5.18;;;3.15;;
48911;SDS011;34722;52.108;5.044;2023-07-30T18:30:22;9.18;;;3.55;;
48911;SDS011;34722;52.108;5.044;2023-07-30T18:32:48;6.78;;;2.80;;
48911;SDS011;34722;52.108;5.044;2023-07-30T18:35:13;9.43;;;3.55;;
48911;SDS011;34722;52.108;5.044;2023-07-30T18:37:39;6.00;;;2.90;;
48911;SDS011;34722;52.108;5.044;2023-07-30T18:40:08;9.88;;;3.25;;
48911;SDS011;34722;52.108;5.044;2023-07-30T18:42:37;7.63;;;2.50;;
48911;SDS011;34722;52.108;5.044;2023-07-30T18:45:03;8.50;;;2.55;;
48911;SDS011;34722;52.108;5.044;2023-07-30T18:47:30;7.57;;;2.88;;
48911;SDS011;34722;52.108;5.044;2023-07-30T18:49:55;5.78;;;3.03;;
48911;SDS011;34722;52.108;5.044;2023-07-30T18:52:21;5.47;;;3.10;;
48911;SDS011;34722;52.108;5.044;2023-07-30T18:54:47;12.48;;;3.55;;
48911;SDS011;34722;52.108;5.044;2023-07-30T18:57:12;6.03;;;3.00;;
48911;SDS011;34722;52.108;5.044;2023-07-30T18:59:39;6.47;;;3.05;;
48911;SDS011;34722;52.108;5.044;2023-07-30T19:02:05;9.43;;;2.85;;
48911;SDS011;34722;52.108;5.044;2023-07-30T19:04:31;5.20;;;2.88;;
48911;SDS011;34722;52.108;5.044;2023-07-30T19:06:57;5.65;;;3.05;;
48911;SDS011;34722;52.108;5.044;2023-07-30T19:09:23;5.05;;;4.00;;
48911;SDS011;34722;52.108;5.044;2023-07-30T19:11:48;7.85;;;4.10;;
48911;SDS011;34722;52.108;5.044;2023-07-30T19:14:14;6.90;;;3.67;;
48911;SDS011;34722;52.108;5.044;2023-07-30T19:16:40;9.48;;;3.55;;
48911;SDS011;34722;52.108;5.044;2023-07-30T19:19:05;6.97;;;3.33;;
48911;SDS011;34722;52.108;5.044;2023-07-30T19:21:31;7.28;;;3.67;;
48911;SDS011;34722;52.108;5.044;2023-07-30T19:23:57;8.10;;;3.33;;
48911;SDS011;34722;52.108;5.044;2023-07-30T19:26:22;5.20;;;3.40;;
48911;SDS011;34722;52.108;5.044;2023-07-30T19:28:48;7.00;;;3.97;;
48911;SDS011;34722;52.108;5.044;2023-07-30T19:31:14;4.53;;;4.00;;
48911;SDS011;34722;52.108;5.044;2023-07-30T19:33:40;8.75;;;3.70;;
48911;SDS011;34722;52.108;5.044;2023-07-30T19:36:07;6.47;;;4.95;;
48911;SDS011;34722;52.108;5.044;2023-07-30T19:38:33;6.05;;;4.95;;
48911;SDS011;34722;52.108;5.044;2023-07-30T19:40:59;13.90;;;5.30;;
48911;SDS011;34722;52.108;5.044;2023-07-30T19:43:25;8.15;;;6.25;;
48911;SDS011;34722;52.108;5.044;2023-07-30T19:45:51;10.48;;;6.82;;
48911;SDS011;34722;52.108;5.044;2023-07-30T19:48:21;11.52;;;6.90;;
48911;SDS011;34722;52.108;5.044;2023-07-30T19:50:47;11.65;;;6.72;;
48911;SDS011;34722;52.108;5.044;2023-07-30T19:53:12;8.45;;;7.55;;
48911;SDS011;34722;52.108;5.044;2023-07-30T19:55:38;9.15;;;5.72;;
48911;SDS011;34722;52.108;5.044;2023-07-30T19:58:20;7.95;;;5.63;;